sensor_id;sensor_type;location;lat;lon;timestamp;P1;durP1;ratioP1;P2;durP2;ratioP2
24151;SDS011;12311;50.866;4.332;2022-11-11T00:00:29;11.27;;;3.80;;
24151;SDS011;12311;50.866;4.332;2022-11-11T00:02:56;12.63;;;4.93;;
24151;SDS011;12311;50.866;4.332;2022-11-11T00:05:22;11.38;;;4.57;;
24151;SDS011;12311;50.866;4.332;2022-11-11T00:07:51;9.27;;;4.43;;
24151;SDS011;12311;50.866;4.332;2022-11-11T00:10:17;10.30;;;3.42;;
24151;SDS011;12311;50.866;4.332;2022-11-11T00:12:44;9.27;;;3.75;;
24151;SDS011;12311;50.866;4.332;2022-11-11T00:15:09;9.30;;;3.60;;
24151;SDS011;12311;50.866;4.332;2022-11-11T00:17:35;8.07;;;3.90;;
24151;SDS011;12311;50.866;4.332;2022-11-11T00:20:20;7.57;;;3.28;;
24151;SDS011;12311;50.866;4.332;2022-11-11T00:23:04;11.15;;;3.72;;
24151;SDS011;12311;50.866;4.332;2022-11-11T00:25:51;7.97;;;3.90;;
24151;SDS011;12311;50.866;4.332;2022-11-11T00:28:18;8.52;;;3.00;;
24151;SDS011;12311;50.866;4.332;2022-11-11T00:30:44;7.95;;;3.00;;
24151;SDS011;12311;50.866;4.332;2022-11-11T00:33:10;9.75;;;2.63;;
24151;SDS011;12311;50.866;4.332;2022-11-11T00:35:36;12.35;;;3.17;;
24151;SDS011;12311;50.866;4.332;2022-11-11T00:38:20;6.05;;;2.65;;
24151;SDS011;12311;50.866;4.332;2022-11-11T00:41:04;6.07;;;2.65;;
24151;SDS011;12311;50.866;4.332;2022-11-11T00:43:30;10.00;;;3.03;;
24151;SDS011;12311;50.866;4.332;2022-11-11T00:45:56;9.00;;;3.78;;
24151;SDS011;12311;50.866;4.332;2022-11-11T00:48:41;8.98;;;3.80;;
24151;SDS011;12311;50.866;4.332;2022-11-11T00:51:26;9.60;;;2.50;;
24151;SDS011;12311;50.866;4.332;2022-11-11T00:53:52;4.07;;;2.20;;
24151;SDS011;12311;50.866;4.332;2022-11-11T00:56:18;4.95;;;2.15;;
24151;SDS011;12311;50.866;4.332;2022-11-11T00:58:44;6.15;;;3.10;;
24151;SDS011;12311;50.866;4.332;2022-11-11T01:01:10;3.88;;;2.22;;
24151;SDS011;12311;50.866;4.332;2022-11-11T01:03:35;3.65;;;2.08;;
24151;SDS011;12311;50.866;4.332;2022-11-11T01:06:02;7.47;;;2.80;;
24151;SDS011;12311;50.866;4.332;2022-11-11T01:08:29;4.25;;;2.10;;
24151;SDS011;12311;50.866;4.332;2022-11-11T01:10:55;6.93;;;2.80;;
24151;SDS011;12311;50.866;4.332;2022-11-11T01:13:27;9.43;;;2.67;;
24151;SDS011;12311;50.866;4.332;2022-11-11T01:16:02;7.93;;;2.83;;
24151;SDS011;12311;50.866;4.332;2022-11-11T01:18:32;7.82;;;2.65;;
24151;SDS011;12311;50.866;4.332;2022-11-11T01:21:03;8.02;;;2.63;;
24151;SDS011;12311;50.866;4.332;2022-11-11T01:23:29;11.57;;;3.00;;
24151;SDS011;12311;50.866;4.332;2022-11-11T01:26:00;3.88;;;2.40;;
24151;SDS011;12311;50.866;4.332;2022-11-11T01:28:31;8.07;;;1.98;;
24151;SDS011;12311;50.866;4.332;2022-11-11T01:31:01;11.25;;;2.92;;
24151;SDS011;12311;50.866;4.332;2022-11-11T01:33:32;11.43;;;3.50;;
24151;SDS011;12311;50.866;4.332;2022-11-11T01:36:17;7.53;;;2.10;;
24151;SDS011;12311;50.866;4.332;2022-11-11T01:38:47;3.30;;;2.13;;
24151;SDS011;12311;50.866;4.332;2022-11-11T01:41:16;9.55;;;2.30;;
24151;SDS011;12311;50.866;4.332;2022-11-11T01:44:46;9.40;;;2.67;;
24151;SDS011;12311;50.866;4.332;2022-11-11T01:47:06;5.22;;;2.33;;
24151;SDS011;12311;50.866;4.332;2022-11-11T01:57:15;12.30;;;2.40;;
24151;SDS011;12311;50.866;4.332;2022-11-11T01:59:49;3.80;;;1.95;;
24151;SDS011;12311;50.866;4.332;2022-11-11T02:02:31;7.85;;;3.55;;
24151;SDS011;12311;50.866;4.332;2022-11-11T02:05:03;6.50;;;2.55;;
24151;SDS011;12311;50.866;4.332;2022-11-11T02:07:48;15.20;;;3.45;;
24151;SDS011;12311;50.866;4.332;2022-11-11T02:10:17;8.10;;;2.80;;
24151;SDS011;12311;50.866;4.332;2022-11-11T02:12:45;4.65;;;2.03;;
24151;SDS011;12311;50.866;4.332;2022-11-11T02:15:30;5.15;;;2.85;;
24151;SDS011;12311;50.866;4.332;2022-11-11T02:17:55;4.65;;;1.98;;
24151;SDS011;12311;50.866;4.332;2022-11-11T02:20:25;7.53;;;3.15;;
24151;SDS011;12311;50.866;4.332;2022-11-11T02:23:06;12.25;;;3.45;;
24151;SDS011;12311;50.866;4.332;2022-11-11T02:25:44;11.02;;;3.22;;
24151;SDS011;12311;50.866;4.332;2022-11-11T02:28:12;9.57;;;3.45;;
24151;SDS011;12311;50.866;4.332;2022-11-11T02:30:39;8.88;;;4.20;;
24151;SDS011;12311;50.866;4.332;2022-11-11T02:33:05;6.50;;;3.38;;
24151;SDS011;12311;50.866;4.332;2022-11-11T02:35:32;10.18;;;3.97;;
24151;SDS011;12311;50.866;4.332;2022-11-11T02:38:03;11.35;;;3.88;;
24151;SDS011;12311;50.866;4.332;2022-11-11T02:43:29;9.90;;;5.20;;
24151;SDS011;12311;50.866;4.332;2022-11-11T02:45:56;10.07;;;4.47;;
24151;SDS011;12311;50.866;4.332;2022-11-11T02:48:22;12.50;;;4.55;;
24151;SDS011;12311;50.866;4.332;2022-11-11T02:50:48;12.20;;;5.13;;
24151;SDS011;12311;50.866;4.332;2022-11-11T02:53:14;9.80;;;3.95;;
24151;SDS011;12311;50.866;4.332;2022-11-11T02:55:40;22.00;;;5.30;;
24151;SDS011;12311;50.866;4.332;2022-11-11T02:58:06;9.88;;;5.03;;
24151;SDS011;12311;50.866;4.332;2022-11-11T03:00:32;12.65;;;4.55;;
24151;SDS011;12311;50.866;4.332;2022-11-11T03:03:01;9.70;;;4.20;;
24151;SDS011;12311;50.866;4.332;2022-11-11T03:05:26;16.60;;;4.47;;
24151;SDS011;12311;50.866;4.332;2022-11-11T03:07:52;11.25;;;4.43;;
24151;SDS011;12311;50.866;4.332;2022-11-11T03:10:18;17.08;;;4.30;;
24151;SDS011;12311;50.866;4.332;2022-11-11T03:12:43;15.60;;;5.20;;
24151;SDS011;12311;50.866;4.332;2022-11-11T03:15:09;10.57;;;3.22;;
24151;SDS011;12311;50.866;4.332;2022-11-11T03:17:35;9.73;;;4.28;;
24151;SDS011;12311;50.866;4.332;2022-11-11T03:20:11;13.52;;;4.22;;
24151;SDS011;12311;50.866;4.332;2022-11-11T03:23:00;10.75;;;4.43;;
24151;SDS011;12311;50.866;4.332;2022-11-11T03:25:27;12.53;;;2.87;;
24151;SDS011;12311;50.866;4.332;2022-11-11T03:30:35;12.63;;;3.40;;
24151;SDS011;12311;50.866;4.332;2022-11-11T03:33:02;12.05;;;3.20;;
24151;SDS011;12311;50.866;4.332;2022-11-11T03:35:28;16.52;;;3.45;;
24151;SDS011;12311;50.866;4.332;2022-11-11T03:37:54;8.75;;;3.03;;
24151;SDS011;12311;50.866;4.332;2022-11-11T03:40:38;9.88;;;4.13;;
24151;SDS011;12311;50.866;4.332;2022-11-11T03:43:04;11.77;;;3.63;;
24151;SDS011;12311;50.866;4.332;2022-11-11T03:45:33;5.13;;;2.50;;
24151;SDS011;12311;50.866;4.332;2022-11-11T03:47:59;8.93;;;3.38;;
24151;SDS011;12311;50.866;4.332;2022-11-11T03:50:24;11.75;;;3.30;;
24151;SDS011;12311;50.866;4.332;2022-11-11T03:52:50;6.60;;;3.45;;
24151;SDS011;12311;50.866;4.332;2022-11-11T03:55:16;7.07;;;2.95;;
24151;SDS011;12311;50.866;4.332;2022-11-11T03:57:42;6.30;;;3.10;;
24151;SDS011;12311;50.866;4.332;2022-11-11T04:00:11;6.93;;;2.47;;
24151;SDS011;12311;50.866;4.332;2022-11-11T04:02:38;6.60;;;3.00;;
24151;SDS011;12311;50.866;4.332;2022-11-11T04:05:22;8.43;;;3.45;;
24151;SDS011;12311;50.866;4.332;2022-11-11T04:08:10;6.22;;;2.53;;
24151;SDS011;12311;50.866;4.332;2022-11-11T04:10:56;8.98;;;4.00;;
24151;SDS011;12311;50.866;4.332;2022-11-11T04:13:22;5.85;;;3.33;;
24151;SDS011;12311;50.866;4.332;2022-11-11T04:16:07;9.35;;;2.80;;
24151;SDS011;12311;50.866;4.332;2022-11-11T04:18:36;6.90;;;2.70;;
24151;SDS011;12311;50.866;4.332;2022-11-11T04:21:23;10.85;;;3.65;;
24151;SDS011;12311;50.866;4.332;2022-11-11T04:24:14;8.35;;;2.85;;
24151;SDS011;12311;50.866;4.332;2022-11-11T04:27:00;5.32;;;2.30;;
24151;SDS011;12311;50.866;4.332;2022-11-11T04:29:28;5.72;;;2.05;;
24151;SDS011;12311;50.866;4.332;2022-11-11T04:31:59;5.20;;;3.05;;
24151;SDS011;12311;50.866;4.332;2022-11-11T04:34:48;7.35;;;2.63;;
24151;SDS011;12311;50.866;4.332;2022-11-11T04:37:15;8.75;;;2.83;;
24151;SDS011;12311;50.866;4.332;2022-11-11T04:39:42;7.60;;;3.08;;
24151;SDS011;12311;50.866;4.332;2022-11-11T04:42:26;7.80;;;2.58;;
24151;SDS011;12311;50.866;4.332;2022-11-11T04:44:54;5.68;;;2.22;;
24151;SDS011;12311;50.866;4.332;2022-11-11T04:47:44;4.18;;;2.35;;
24151;SDS011;12311;50.866;4.332;2022-11-11T04:50:41;10.63;;;2.10;;
24151;SDS011;12311;50.866;4.332;2022-11-11T04:53:08;5.80;;;2.65;;
24151;SDS011;12311;50.866;4.332;2022-11-11T04:55:35;10.50;;;2.92;;
24151;SDS011;12311;50.866;4.332;2022-11-11T04:58:21;7.00;;;2.38;;
24151;SDS011;12311;50.866;4.332;2022-11-11T05:00:48;4.07;;;2.17;;
24151;SDS011;12311;50.866;4.332;2022-11-11T05:03:13;6.88;;;2.67;;
24151;SDS011;12311;50.866;4.332;2022-11-11T05:08:31;5.85;;;2.10;;
24151;SDS011;12311;50.866;4.332;2022-11-11T05:11:16;8.80;;;3.65;;
24151;SDS011;12311;50.866;4.332;2022-11-11T05:13:43;4.22;;;2.47;;
24151;SDS011;12311;50.866;4.332;2022-11-11T05:16:27;6.50;;;2.67;;
24151;SDS011;12311;50.866;4.332;2022-11-11T05:19:14;4.72;;;2.88;;
24151;SDS011;12311;50.866;4.332;2022-11-11T05:22:18;8.18;;;2.78;;
24151;SDS011;12311;50.866;4.332;2022-11-11T05:24:54;12.95;;;2.88;;
24151;SDS011;12311;50.866;4.332;2022-11-11T05:27:38;4.15;;;2.42;;
24151;SDS011;12311;50.866;4.332;2022-11-11T05:30:04;5.60;;;2.13;;
24151;SDS011;12311;50.866;4.332;2022-11-11T05:32:31;10.02;;;2.30;;
24151;SDS011;12311;50.866;4.332;2022-11-11T05:34:57;4.90;;;2.53;;
24151;SDS011;12311;50.866;4.332;2022-11-11T05:37:22;6.35;;;2.38;;
24151;SDS011;12311;50.866;4.332;2022-11-11T05:39:48;6.82;;;2.20;;
24151;SDS011;12311;50.866;4.332;2022-11-11T05:42:14;3.90;;;2.05;;
24151;SDS011;12311;50.866;4.332;2022-11-11T05:44:40;10.68;;;2.40;;
24151;SDS011;12311;50.866;4.332;2022-11-11T05:47:06;5.32;;;2.25;;
24151;SDS011;12311;50.866;4.332;2022-11-11T05:49:32;4.82;;;1.85;;
24151;SDS011;12311;50.866;4.332;2022-11-11T05:51:57;5.00;;;2.70;;
24151;SDS011;12311;50.866;4.332;2022-11-11T05:54:23;4.50;;;1.83;;
24151;SDS011;12311;50.866;4.332;2022-11-11T05:56:49;9.25;;;2.33;;
24151;SDS011;12311;50.866;4.332;2022-11-11T05:59:15;4.20;;;2.22;;
24151;SDS011;12311;50.866;4.332;2022-11-11T06:01:41;5.28;;;1.77;;
24151;SDS011;12311;50.866;4.332;2022-11-11T06:04:06;4.20;;;2.03;;
24151;SDS011;12311;50.866;4.332;2022-11-11T06:06:33;3.88;;;1.83;;
24151;SDS011;12311;50.866;4.332;2022-11-11T06:08:59;5.00;;;2.30;;
24151;SDS011;12311;50.866;4.332;2022-11-11T06:11:25;4.93;;;2.40;;
24151;SDS011;12311;50.866;4.332;2022-11-11T06:13:54;3.30;;;1.88;;
24151;SDS011;12311;50.866;4.332;2022-11-11T06:16:20;6.13;;;2.72;;
24151;SDS011;12311;50.866;4.332;2022-11-11T06:18:47;5.55;;;2.28;;
24151;SDS011;12311;50.866;4.332;2022-11-11T06:21:13;4.97;;;2.03;;
24151;SDS011;12311;50.866;4.332;2022-11-11T06:23:38;4.38;;;2.45;;
24151;SDS011;12311;50.866;4.332;2022-11-11T06:26:04;5.50;;;2.72;;
24151;SDS011;12311;50.866;4.332;2022-11-11T06:28:47;8.02;;;2.00;;
24151;SDS011;12311;50.866;4.332;2022-11-11T06:31:14;4.45;;;2.13;;
24151;SDS011;12311;50.866;4.332;2022-11-11T06:33:50;6.18;;;2.97;;
24151;SDS011;12311;50.866;4.332;2022-11-11T06:36:17;17.85;;;3.80;;
24151;SDS011;12311;50.866;4.332;2022-11-11T06:38:43;8.00;;;4.20;;
24151;SDS011;12311;50.866;4.332;2022-11-11T06:41:09;4.88;;;2.47;;
24151;SDS011;12311;50.866;4.332;2022-11-11T06:43:39;6.93;;;2.53;;
24151;SDS011;12311;50.866;4.332;2022-11-11T06:46:06;4.60;;;2.17;;
24151;SDS011;12311;50.866;4.332;2022-11-11T06:48:32;5.13;;;2.58;;
24151;SDS011;12311;50.866;4.332;2022-11-11T06:51:01;6.18;;;2.67;;
24151;SDS011;12311;50.866;4.332;2022-11-11T06:53:28;8.77;;;2.95;;
24151;SDS011;12311;50.866;4.332;2022-11-11T06:55:55;4.05;;;2.25;;
24151;SDS011;12311;50.866;4.332;2022-11-11T06:58:21;9.85;;;2.58;;
24151;SDS011;12311;50.866;4.332;2022-11-11T07:00:47;8.15;;;3.03;;
24151;SDS011;12311;50.866;4.332;2022-11-11T07:03:15;8.40;;;2.55;;
24151;SDS011;12311;50.866;4.332;2022-11-11T07:05:45;4.18;;;2.70;;
24151;SDS011;12311;50.866;4.332;2022-11-11T07:08:12;8.60;;;3.10;;
24151;SDS011;12311;50.866;4.332;2022-11-11T07:10:42;14.15;;;3.85;;
24151;SDS011;12311;50.866;4.332;2022-11-11T07:13:09;11.52;;;2.90;;
24151;SDS011;12311;50.866;4.332;2022-11-11T07:15:35;7.80;;;3.03;;
24151;SDS011;12311;50.866;4.332;2022-11-11T07:18:01;7.75;;;3.33;;
24151;SDS011;12311;50.866;4.332;2022-11-11T07:20:27;12.77;;;3.50;;
24151;SDS011;12311;50.866;4.332;2022-11-11T07:22:53;9.93;;;3.28;;
24151;SDS011;12311;50.866;4.332;2022-11-11T07:25:18;8.15;;;3.28;;
24151;SDS011;12311;50.866;4.332;2022-11-11T07:27:44;6.80;;;2.42;;
24151;SDS011;12311;50.866;4.332;2022-11-11T07:30:10;7.57;;;3.28;;
24151;SDS011;12311;50.866;4.332;2022-11-11T07:32:36;8.55;;;2.75;;
24151;SDS011;12311;50.866;4.332;2022-11-11T07:35:09;9.00;;;3.38;;
24151;SDS011;12311;50.866;4.332;2022-11-11T07:37:35;12.80;;;3.35;;
24151;SDS011;12311;50.866;4.332;2022-11-11T07:40:02;10.77;;;4.05;;
24151;SDS011;12311;50.866;4.332;2022-11-11T07:42:27;15.30;;;3.55;;
24151;SDS011;12311;50.866;4.332;2022-11-11T07:44:53;10.38;;;2.78;;
24151;SDS011;12311;50.866;4.332;2022-11-11T07:47:18;11.52;;;3.08;;
24151;SDS011;12311;50.866;4.332;2022-11-11T07:49:44;8.70;;;2.95;;
24151;SDS011;12311;50.866;4.332;2022-11-11T07:52:10;8.65;;;3.05;;
24151;SDS011;12311;50.866;4.332;2022-11-11T07:54:35;4.90;;;2.45;;
24151;SDS011;12311;50.866;4.332;2022-11-11T07:57:01;8.30;;;2.78;;
24151;SDS011;12311;50.866;4.332;2022-11-11T07:59:27;3.90;;;2.00;;
24151;SDS011;12311;50.866;4.332;2022-11-11T08:01:52;6.20;;;2.63;;
24151;SDS011;12311;50.866;4.332;2022-11-11T08:04:18;6.35;;;3.15;;
24151;SDS011;12311;50.866;4.332;2022-11-11T08:06:44;11.18;;;3.72;;
24151;SDS011;12311;50.866;4.332;2022-11-11T08:09:09;9.20;;;2.90;;
24151;SDS011;12311;50.866;4.332;2022-11-11T08:11:35;4.47;;;2.65;;
24151;SDS011;12311;50.866;4.332;2022-11-11T08:14:19;3.67;;;2.03;;
24151;SDS011;12311;50.866;4.332;2022-11-11T08:16:44;6.60;;;2.85;;
24151;SDS011;12311;50.866;4.332;2022-11-11T08:19:10;7.55;;;3.20;;
24151;SDS011;12311;50.866;4.332;2022-11-11T08:21:36;7.65;;;2.67;;
24151;SDS011;12311;50.866;4.332;2022-11-11T08:24:02;5.90;;;2.72;;
24151;SDS011;12311;50.866;4.332;2022-11-11T08:26:28;4.47;;;1.75;;
24151;SDS011;12311;50.866;4.332;2022-11-11T08:28:53;10.23;;;3.40;;
24151;SDS011;12311;50.866;4.332;2022-11-11T08:31:19;6.85;;;2.20;;
24151;SDS011;12311;50.866;4.332;2022-11-11T08:33:45;8.18;;;2.53;;
24151;SDS011;12311;50.866;4.332;2022-11-11T08:36:10;7.20;;;3.08;;
24151;SDS011;12311;50.866;4.332;2022-11-11T08:38:37;7.07;;;2.97;;
24151;SDS011;12311;50.866;4.332;2022-11-11T08:41:04;6.55;;;2.63;;
24151;SDS011;12311;50.866;4.332;2022-11-11T08:43:31;8.68;;;3.47;;
24151;SDS011;12311;50.866;4.332;2022-11-11T08:46:00;7.22;;;3.22;;
24151;SDS011;12311;50.866;4.332;2022-11-11T08:48:28;6.50;;;3.30;;
24151;SDS011;12311;50.866;4.332;2022-11-11T08:50:54;7.72;;;2.83;;
24151;SDS011;12311;50.866;4.332;2022-11-11T08:53:20;7.28;;;2.95;;
24151;SDS011;12311;50.866;4.332;2022-11-11T08:55:46;4.70;;;2.17;;
24151;SDS011;12311;50.866;4.332;2022-11-11T08:58:12;16.13;;;5.28;;
24151;SDS011;12311;50.866;4.332;2022-11-11T09:00:38;6.07;;;2.78;;
24151;SDS011;12311;50.866;4.332;2022-11-11T09:03:05;8.15;;;2.90;;
24151;SDS011;12311;50.866;4.332;2022-11-11T09:05:32;6.22;;;2.28;;
24151;SDS011;12311;50.866;4.332;2022-11-11T09:08:02;3.60;;;2.00;;
24151;SDS011;12311;50.866;4.332;2022-11-11T09:10:31;7.68;;;3.28;;
24151;SDS011;12311;50.866;4.332;2022-11-11T09:12:57;9.95;;;3.35;;
24151;SDS011;12311;50.866;4.332;2022-11-11T09:15:24;5.03;;;2.63;;
24151;SDS011;12311;50.866;4.332;2022-11-11T09:17:50;10.50;;;4.80;;
24151;SDS011;12311;50.866;4.332;2022-11-11T09:20:16;8.52;;;2.78;;
24151;SDS011;12311;50.866;4.332;2022-11-11T09:22:43;9.48;;;3.20;;
24151;SDS011;12311;50.866;4.332;2022-11-11T09:25:09;6.40;;;2.97;;
24151;SDS011;12311;50.866;4.332;2022-11-11T09:27:35;7.53;;;3.00;;
24151;SDS011;12311;50.866;4.332;2022-11-11T09:30:01;7.85;;;2.33;;
24151;SDS011;12311;50.866;4.332;2022-11-11T09:32:28;5.60;;;2.80;;
24151;SDS011;12311;50.866;4.332;2022-11-11T09:34:54;4.75;;;2.70;;
24151;SDS011;12311;50.866;4.332;2022-11-11T09:37:20;5.22;;;2.13;;
24151;SDS011;12311;50.866;4.332;2022-11-11T09:39:46;4.97;;;2.50;;
24151;SDS011;12311;50.866;4.332;2022-11-11T09:42:15;2.78;;;1.58;;
24151;SDS011;12311;50.866;4.332;2022-11-11T09:45:15;5.00;;;2.00;;
24151;SDS011;12311;50.866;4.332;2022-11-11T09:50:29;4.25;;;2.45;;
24151;SDS011;12311;50.866;4.332;2022-11-11T09:55:32;5.38;;;1.90;;
24151;SDS011;12311;50.866;4.332;2022-11-11T09:58:04;3.08;;;1.65;;
24151;SDS011;12311;50.866;4.332;2022-11-11T10:00:41;4.30;;;1.95;;
24151;SDS011;12311;50.866;4.332;2022-11-11T10:05:45;3.13;;;1.77;;
24151;SDS011;12311;50.866;4.332;2022-11-11T10:08:18;1.98;;;1.25;;
24151;SDS011;12311;50.866;4.332;2022-11-11T10:10:53;3.60;;;1.20;;
24151;SDS011;12311;50.866;4.332;2022-11-11T10:13:26;2.22;;;1.10;;
24151;SDS011;12311;50.866;4.332;2022-11-11T10:21:08;4.13;;;1.70;;
24151;SDS011;12311;50.866;4.332;2022-11-11T10:23:39;5.10;;;2.00;;
24151;SDS011;12311;50.866;4.332;2022-11-11T10:26:06;4.55;;;1.92;;
24151;SDS011;12311;50.866;4.332;2022-11-11T10:28:48;4.03;;;1.10;;
24151;SDS011;12311;50.866;4.332;2022-11-11T10:31:17;4.22;;;2.08;;
24151;SDS011;12311;50.866;4.332;2022-11-11T10:36:27;5.32;;;1.33;;
24151;SDS011;12311;50.866;4.332;2022-11-11T10:38:58;5.75;;;1.80;;
24151;SDS011;12311;50.866;4.332;2022-11-11T10:41:32;2.63;;;1.20;;
24151;SDS011;12311;50.866;4.332;2022-11-11T10:44:20;2.35;;;1.35;;
24151;SDS011;12311;50.866;4.332;2022-11-11T10:46:52;2.95;;;1.40;;
24151;SDS011;12311;50.866;4.332;2022-11-11T10:49:29;2.40;;;1.42;;
24151;SDS011;12311;50.866;4.332;2022-11-11T10:54:40;2.33;;;1.20;;
24151;SDS011;12311;50.866;4.332;2022-11-11T10:59:55;1.85;;;1.00;;
24151;SDS011;12311;50.866;4.332;2022-11-11T11:02:37;4.82;;;1.10;;
24151;SDS011;12311;50.866;4.332;2022-11-11T11:08:14;2.55;;;0.80;;
24151;SDS011;12311;50.866;4.332;2022-11-11T11:13:16;1.98;;;1.25;;
24151;SDS011;12311;50.866;4.332;2022-11-11T11:15:48;1.00;;;0.90;;
24151;SDS011;12311;50.866;4.332;2022-11-11T11:18:37;2.10;;;1.00;;
24151;SDS011;12311;50.866;4.332;2022-11-11T11:21:04;7.80;;;1.63;;
24151;SDS011;12311;50.866;4.332;2022-11-11T11:23:39;3.42;;;1.42;;
24151;SDS011;12311;50.866;4.332;2022-11-11T11:26:07;3.53;;;1.08;;
24151;SDS011;12311;50.866;4.332;2022-11-11T11:28:51;3.00;;;1.35;;
24151;SDS011;12311;50.866;4.332;2022-11-11T11:31:55;2.60;;;1.38;;
24151;SDS011;12311;50.866;4.332;2022-11-11T11:34:13;2.28;;;1.10;;
24151;SDS011;12311;50.866;4.332;2022-11-11T11:36:39;2.08;;;0.73;;
24151;SDS011;12311;50.866;4.332;2022-11-11T11:39:05;2.40;;;1.00;;
24151;SDS011;12311;50.866;4.332;2022-11-11T11:41:35;1.40;;;0.82;;
24151;SDS011;12311;50.866;4.332;2022-11-11T11:44:02;2.50;;;1.13;;
24151;SDS011;12311;50.866;4.332;2022-11-11T11:46:48;1.95;;;0.80;;
24151;SDS011;12311;50.866;4.332;2022-11-11T11:49:38;2.00;;;0.93;;
24151;SDS011;12311;50.866;4.332;2022-11-11T12:08:55;5.45;;;1.42;;
24151;SDS011;12311;50.866;4.332;2022-11-11T12:17:40;2.80;;;1.35;;
24151;SDS011;12311;50.866;4.332;2022-11-11T12:20:27;4.38;;;1.15;;
24151;SDS011;12311;50.866;4.332;2022-11-11T12:25:46;4.88;;;1.70;;
24151;SDS011;12311;50.866;4.332;2022-11-11T12:28:33;2.05;;;1.33;;
24151;SDS011;12311;50.866;4.332;2022-11-11T12:33:54;2.55;;;1.10;;
24151;SDS011;12311;50.866;4.332;2022-11-11T12:39:26;2.25;;;1.20;;
24151;SDS011;12311;50.866;4.332;2022-11-11T12:42:18;2.50;;;1.25;;
24151;SDS011;12311;50.866;4.332;2022-11-11T12:45:18;3.47;;;1.15;;
24151;SDS011;12311;50.866;4.332;2022-11-11T12:59:10;1.75;;;0.98;;
24151;SDS011;12311;50.866;4.332;2022-11-11T13:02:58;1.30;;;0.80;;
24151;SDS011;12311;50.866;4.332;2022-11-11T13:15:22;2.03;;;1.08;;
24151;SDS011;12311;50.866;4.332;2022-11-11T13:17:49;2.53;;;1.25;;
24151;SDS011;12311;50.866;4.332;2022-11-11T13:23:18;0.80;;;0.57;;
24151;SDS011;12311;50.866;4.332;2022-11-11T13:25:45;1.92;;;0.98;;
24151;SDS011;12311;50.866;4.332;2022-11-11T13:28:18;3.20;;;1.13;;
24151;SDS011;12311;50.866;4.332;2022-11-11T13:33:18;1.73;;;0.80;;
24151;SDS011;12311;50.866;4.332;2022-11-11T13:36:00;3.92;;;1.05;;
24151;SDS011;12311;50.866;4.332;2022-11-11T13:38:29;1.48;;;0.70;;
24151;SDS011;12311;50.866;4.332;2022-11-11T13:43:42;2.10;;;0.93;;
24151;SDS011;12311;50.866;4.332;2022-11-11T13:46:26;0.95;;;0.88;;
24151;SDS011;12311;50.866;4.332;2022-11-11T13:48:54;3.53;;;1.23;;
24151;SDS011;12311;50.866;4.332;2022-11-11T13:51:25;1.48;;;0.95;;
24151;SDS011;12311;50.866;4.332;2022-11-11T13:54:01;1.35;;;0.60;;
24151;SDS011;12311;50.866;4.332;2022-11-11T13:56:36;2.47;;;1.02;;
24151;SDS011;12311;50.866;4.332;2022-11-11T13:59:23;3.30;;;1.13;;
24151;SDS011;12311;50.866;4.332;2022-11-11T14:02:11;2.05;;;1.05;;
24151;SDS011;12311;50.866;4.332;2022-11-11T14:12:46;2.50;;;0.80;;
24151;SDS011;12311;50.866;4.332;2022-11-11T14:20:43;2.25;;;1.10;;
24151;SDS011;12311;50.866;4.332;2022-11-11T14:28:35;1.95;;;0.85;;
24151;SDS011;12311;50.866;4.332;2022-11-11T14:34:18;1.75;;;0.95;;
24151;SDS011;12311;50.866;4.332;2022-11-11T14:39:52;2.13;;;0.90;;
24151;SDS011;12311;50.866;4.332;2022-11-11T14:47:53;3.15;;;0.90;;
24151;SDS011;12311;50.866;4.332;2022-11-11T14:50:39;2.42;;;1.05;;
24151;SDS011;12311;50.866;4.332;2022-11-11T14:53:08;3.92;;;1.40;;
24151;SDS011;12311;50.866;4.332;2022-11-11T14:55:52;2.22;;;1.20;;
24151;SDS011;12311;50.866;4.332;2022-11-11T14:58:20;1.33;;;1.10;;
24151;SDS011;12311;50.866;4.332;2022-11-11T15:00:50;2.92;;;1.33;;
24151;SDS011;12311;50.866;4.332;2022-11-11T15:03:41;3.03;;;1.05;;
24151;SDS011;12311;50.866;4.332;2022-11-11T15:06:24;2.03;;;0.93;;
24151;SDS011;12311;50.866;4.332;2022-11-11T15:17:51;1.38;;;0.90;;
24151;SDS011;12311;50.866;4.332;2022-11-11T15:20:27;2.38;;;1.13;;
24151;SDS011;12311;50.866;4.332;2022-11-11T15:23:05;2.50;;;1.38;;
24151;SDS011;12311;50.866;4.332;2022-11-11T15:31:43;3.25;;;1.42;;
24151;SDS011;12311;50.866;4.332;2022-11-11T15:34:42;3.67;;;1.77;;
24151;SDS011;12311;50.866;4.332;2022-11-11T15:37:11;2.40;;;1.17;;
24151;SDS011;12311;50.866;4.332;2022-11-11T15:39:43;5.10;;;2.58;;
24151;SDS011;12311;50.866;4.332;2022-11-11T15:42:24;2.65;;;1.30;;
24151;SDS011;12311;50.866;4.332;2022-11-11T15:45:04;2.42;;;1.33;;
24151;SDS011;12311;50.866;4.332;2022-11-11T15:47:43;2.92;;;1.50;;
24151;SDS011;12311;50.866;4.332;2022-11-11T15:50:16;4.32;;;2.08;;
24151;SDS011;12311;50.866;4.332;2022-11-11T15:52:55;3.35;;;1.40;;
24151;SDS011;12311;50.866;4.332;2022-11-11T15:55:26;3.72;;;1.83;;
24151;SDS011;12311;50.866;4.332;2022-11-11T15:57:54;5.75;;;2.03;;
24151;SDS011;12311;50.866;4.332;2022-11-11T16:00:31;2.50;;;1.20;;
24151;SDS011;12311;50.866;4.332;2022-11-11T16:02:57;2.60;;;1.35;;
24151;SDS011;12311;50.866;4.332;2022-11-11T16:05:24;2.60;;;1.73;;
24151;SDS011;12311;50.866;4.332;2022-11-11T16:07:52;4.28;;;1.50;;
24151;SDS011;12311;50.866;4.332;2022-11-11T16:10:39;6.72;;;2.00;;
24151;SDS011;12311;50.866;4.332;2022-11-11T16:15:41;5.75;;;1.52;;
24151;SDS011;12311;50.866;4.332;2022-11-11T16:21:20;4.10;;;2.03;;
24151;SDS011;12311;50.866;4.332;2022-11-11T16:26:03;19.70;;;8.65;;
24151;SDS011;12311;50.866;4.332;2022-11-11T16:28:32;8.88;;;3.78;;
24151;SDS011;12311;50.866;4.332;2022-11-11T16:37:07;9.77;;;3.92;;
24151;SDS011;12311;50.866;4.332;2022-11-11T16:39:35;12.30;;;5.70;;
24151;SDS011;12311;50.866;4.332;2022-11-11T16:42:04;14.35;;;7.13;;
24151;SDS011;12311;50.866;4.332;2022-11-11T16:44:43;19.02;;;6.32;;
24151;SDS011;12311;50.866;4.332;2022-11-11T16:47:41;15.40;;;6.72;;
24151;SDS011;12311;50.866;4.332;2022-11-11T16:57:55;6.15;;;3.30;;
24151;SDS011;12311;50.866;4.332;2022-11-11T17:00:26;7.47;;;3.28;;
24151;SDS011;12311;50.866;4.332;2022-11-11T17:08:39;7.80;;;3.78;;
24151;SDS011;12311;50.866;4.332;2022-11-11T17:11:08;10.45;;;4.00;;
24151;SDS011;12311;50.866;4.332;2022-11-11T17:13:52;9.20;;;4.20;;
24151;SDS011;12311;50.866;4.332;2022-11-11T17:16:18;6.13;;;3.90;;
24151;SDS011;12311;50.866;4.332;2022-11-11T17:18:44;13.10;;;4.35;;
24151;SDS011;12311;50.866;4.332;2022-11-11T17:21:10;8.63;;;4.15;;
24151;SDS011;12311;50.866;4.332;2022-11-11T17:23:36;7.05;;;3.88;;
24151;SDS011;12311;50.866;4.332;2022-11-11T17:26:02;12.40;;;4.65;;
24151;SDS011;12311;50.866;4.332;2022-11-11T17:28:32;7.18;;;3.97;;
24151;SDS011;12311;50.866;4.332;2022-11-11T17:31:09;11.55;;;4.28;;
24151;SDS011;12311;50.866;4.332;2022-11-11T17:33:36;13.25;;;5.35;;
24151;SDS011;12311;50.866;4.332;2022-11-11T17:36:01;8.70;;;4.07;;
24151;SDS011;12311;50.866;4.332;2022-11-11T17:38:27;12.07;;;4.63;;
24151;SDS011;12311;50.866;4.332;2022-11-11T17:40:56;12.45;;;4.80;;
24151;SDS011;12311;50.866;4.332;2022-11-11T17:43:22;7.78;;;4.15;;
24151;SDS011;12311;50.866;4.332;2022-11-11T17:45:49;8.88;;;2.60;;
24151;SDS011;12311;50.866;4.332;2022-11-11T17:48:15;7.30;;;3.28;;
24151;SDS011;12311;50.866;4.332;2022-11-11T17:50:41;8.48;;;3.30;;
24151;SDS011;12311;50.866;4.332;2022-11-11T17:53:06;5.95;;;3.53;;
24151;SDS011;12311;50.866;4.332;2022-11-11T17:55:32;6.93;;;3.65;;
24151;SDS011;12311;50.866;4.332;2022-11-11T17:57:58;6.30;;;3.38;;
24151;SDS011;12311;50.866;4.332;2022-11-11T18:00:25;8.90;;;3.60;;
24151;SDS011;12311;50.866;4.332;2022-11-11T18:02:51;8.80;;;2.65;;
24151;SDS011;12311;50.866;4.332;2022-11-11T18:05:17;11.60;;;3.97;;
24151;SDS011;12311;50.866;4.332;2022-11-11T18:07:43;7.65;;;3.22;;